Terminal Aerodrome Forecast
Issued by NWS Shreveport, LA

Home | Current Version | Previous Version | Text Only | Print | Product List | Glossary On
Versions: 1 2 3 4 5 6 7 8 9 10 11 12 13 14 15 16 17 18 19 20 21
000
FTUS44 KSHV 220725 AAA
TAFSHV
TAF AMD
KSHV 220725Z 2207/2306 08005KT P6SM BKN250
      TEMPO 2210/2213 3SM BR SCT070
     FM221300 09006KT P6SM SCT030 BKN250
     FM221800 10006KT P6SM BKN035
     FM230000 10005KT P6SM BKN040=

USA.gov is the U.S. government's official web portal to all federal, state and local government web resources and services.